createdAt,value
2018-05-13T00:00:02.458Z,0
2018-05-13T00:00:43.022Z,0
2018-05-13T00:01:23.595Z,0
2018-05-13T00:02:04.209Z,0
2018-05-13T00:02:44.805Z,0
2018-05-13T00:03:25.377Z,0
2018-05-13T00:04:05.952Z,0
2018-05-13T00:04:46.527Z,0
2018-05-13T00:05:27.099Z,0
2018-05-13T00:06:07.666Z,0
2018-05-13T00:06:48.249Z,0
2018-05-13T00:07:28.818Z,0
2018-05-13T00:08:09.398Z,0
2018-05-13T00:08:49.992Z,0
2018-05-13T00:09:30.502Z,0
2018-05-13T00:10:11.093Z,0
2018-05-13T00:10:51.669Z,0
2018-05-13T00:11:32.246Z,0
2018-05-13T00:12:12.881Z,0
2018-05-13T00:12:53.436Z,0
2018-05-13T00:13:34.002Z,0
2018-05-13T00:14:14.569Z,0
2018-05-13T00:14:55.120Z,0
2018-05-13T00:15:35.716Z,0
2018-05-13T00:16:16.290Z,0
2018-05-13T00:16:56.841Z,0
2018-05-13T00:17:37.415Z,0
2018-05-13T00:18:17.990Z,0
2018-05-13T00:18:58.546Z,0
2018-05-13T00:19:39.100Z,0
2018-05-13T00:20:19.670Z,0
2018-05-13T00:21:00.236Z,0
2018-05-13T00:21:40.805Z,0
2018-05-13T00:22:21.364Z,0
2018-05-13T00:23:01.926Z,0
2018-05-13T00:23:42.499Z,0
2018-05-13T00:24:23.064Z,0
2018-05-13T00:25:03.628Z,0
2018-05-13T00:25:44.204Z,0
2018-05-13T00:26:24.778Z,0
2018-05-13T00:27:05.338Z,0
2018-05-13T00:27:45.920Z,0
2018-05-13T00:28:26.498Z,0
2018-05-13T00:29:07.056Z,0
2018-05-13T00:29:47.617Z,0
2018-05-13T00:30:28.193Z,0
2018-05-13T00:31:08.763Z,0
2018-05-13T00:31:49.325Z,0
2018-05-13T00:32:29.894Z,0
2018-05-13T00:33:10.466Z,0
2018-05-13T00:33:51.018Z,0
2018-05-13T00:34:31.581Z,0
2018-05-13T00:35:12.162Z,0
2018-05-13T00:35:52.714Z,0
2018-05-13T00:36:33.274Z,0
2018-05-13T00:37:13.848Z,0
2018-05-13T00:37:54.411Z,0
2018-05-13T00:38:35.015Z,0
2018-05-13T00:39:15.571Z,0
2018-05-13T00:39:56.143Z,0
2018-05-13T00:40:36.706Z,0
2018-05-13T00:41:17.260Z,0
2018-05-13T00:41:57.857Z,0
2018-05-13T00:42:38.415Z,0
2018-05-13T00:43:18.983Z,0
2018-05-13T00:43:59.563Z,0
2018-05-13T00:44:40.132Z,0
2018-05-13T00:45:20.692Z,0
2018-05-13T00:46:01.268Z,0
2018-05-13T00:46:41.818Z,0
2018-05-13T00:47:22.367Z,0
2018-05-13T00:48:02.956Z,0
2018-05-13T00:48:43.496Z,0
2018-05-13T00:49:24.062Z,0
2018-05-13T00:50:04.648Z,0
2018-05-13T00:50:45.224Z,0
2018-05-13T00:51:25.770Z,0
2018-05-13T00:52:06.325Z,0
2018-05-13T00:52:46.877Z,0
2018-05-13T00:53:27.450Z,0
2018-05-13T00:54:08.005Z,0
2018-05-13T00:54:48.586Z,0
2018-05-13T00:55:29.154Z,0
2018-05-13T00:56:09.739Z,0
2018-05-13T00:56:50.295Z,0
2018-05-13T00:57:30.919Z,0
2018-05-13T00:58:11.444Z,0
2018-05-13T00:58:52.019Z,0
2018-05-13T00:59:32.557Z,0
2018-05-13T01:00:13.105Z,0
2018-05-13T01:00:53.668Z,0
2018-05-13T01:01:34.235Z,0
2018-05-13T01:02:14.803Z,0
2018-05-13T01:02:55.350Z,0
2018-05-13T01:03:35.927Z,0
2018-05-13T01:04:16.488Z,0
2018-05-13T01:04:57.049Z,0
2018-05-13T01:05:37.593Z,0
2018-05-13T01:06:18.164Z,0
2018-05-13T01:06:58.718Z,0
2018-05-13T01:07:39.296Z,0
2018-05-13T01:08:19.856Z,0
2018-05-13T01:09:00.417Z,0
2018-05-13T01:09:40.976Z,0
2018-05-13T01:10:21.522Z,0
2018-05-13T01:11:02.100Z,0
2018-05-13T01:11:42.670Z,0
2018-05-13T01:12:23.230Z,0
2018-05-13T01:13:03.804Z,0
2018-05-13T01:13:44.354Z,0
2018-05-13T01:14:24.931Z,0
2018-05-13T01:15:05.478Z,0
2018-05-13T01:15:46.051Z,0
2018-05-13T01:16:26.619Z,0
2018-05-13T01:17:07.293Z,0
2018-05-13T01:17:47.848Z,0
2018-05-13T01:18:28.447Z,0
2018-05-13T01:19:09.034Z,0
2018-05-13T01:19:49.602Z,0
2018-05-13T01:20:30.191Z,0
2018-05-13T01:21:10.753Z,0
2018-05-13T01:21:51.366Z,0
2018-05-13T01:22:31.943Z,0
2018-05-13T01:23:12.497Z,0
2018-05-13T01:23:53.103Z,0
2018-05-13T01:24:33.718Z,0
2018-05-13T01:25:14.272Z,0
2018-05-13T01:25:54.847Z,0
2018-05-13T01:26:35.437Z,0
2018-05-13T01:27:15.989Z,0
2018-05-13T01:27:56.567Z,0
2018-05-13T01:28:37.128Z,0
2018-05-13T01:29:17.709Z,0
2018-05-13T01:29:58.341Z,0
2018-05-13T01:30:38.933Z,0
2018-05-13T01:31:19.465Z,0
2018-05-13T01:32:00.031Z,0
2018-05-13T01:32:40.596Z,0
2018-05-13T01:33:21.160Z,0
2018-05-13T01:34:01.744Z,0
2018-05-13T01:34:42.292Z,0
2018-05-13T01:35:22.845Z,0
2018-05-13T01:36:03.431Z,0
2018-05-13T01:36:43.991Z,0
2018-05-13T01:37:24.552Z,0
2018-05-13T01:38:05.120Z,0
2018-05-13T01:38:45.701Z,0
2018-05-13T01:39:26.252Z,0
2018-05-13T01:40:06.817Z,0
2018-05-13T01:40:47.376Z,0
2018-05-13T01:41:27.965Z,0
2018-05-13T01:42:08.572Z,0
2018-05-13T01:42:49.135Z,0
2018-05-13T01:43:29.680Z,0
2018-05-13T01:44:10.227Z,0
2018-05-13T01:44:50.814Z,0
2018-05-13T01:45:31.409Z,0
2018-05-13T01:46:11.973Z,0
2018-05-13T01:46:52.565Z,0
2018-05-13T01:47:33.115Z,0
2018-05-13T01:48:13.690Z,0
2018-05-13T01:48:54.258Z,0
2018-05-13T01:49:34.818Z,0
2018-05-13T01:50:15.389Z,0
2018-05-13T01:50:55.944Z,0
2018-05-13T01:51:36.500Z,0
2018-05-13T01:52:17.066Z,0
2018-05-13T01:52:57.629Z,0
2018-05-13T01:53:38.212Z,0
2018-05-13T01:54:18.795Z,0
2018-05-13T01:54:59.413Z,0
2018-05-13T01:55:39.964Z,0
2018-05-13T01:56:20.525Z,0
2018-05-13T01:57:01.088Z,0
2018-05-13T01:57:41.645Z,0
2018-05-13T01:58:22.224Z,0
2018-05-13T01:59:02.791Z,0
2018-05-13T01:59:43.359Z,0
2018-05-13T02:00:23.935Z,0
2018-05-13T02:01:04.495Z,0
2018-05-13T02:01:45.062Z,0
2018-05-13T02:02:25.640Z,0
2018-05-13T02:03:06.210Z,0
2018-05-13T02:03:46.792Z,0
2018-05-13T02:04:27.386Z,0
2018-05-13T02:05:07.954Z,0
2018-05-13T02:05:48.541Z,0
2018-05-13T02:06:29.131Z,0
2018-05-13T02:07:09.693Z,0
2018-05-13T02:07:50.273Z,0
2018-05-13T02:08:30.839Z,0
2018-05-13T02:09:11.447Z,0
2018-05-13T02:09:52.008Z,0
2018-05-13T02:10:32.578Z,0
2018-05-13T02:11:13.123Z,0
2018-05-13T02:11:53.691Z,0
2018-05-13T02:12:34.248Z,0
2018-05-13T02:13:14.809Z,0
2018-05-13T02:13:55.380Z,0
2018-05-13T02:14:35.940Z,0
2018-05-13T02:15:16.515Z,0
2018-05-13T02:15:57.167Z,0
2018-05-13T02:16:37.738Z,0
2018-05-13T02:17:18.299Z,0
2018-05-13T02:17:58.863Z,0
2018-05-13T02:18:39.432Z,0
2018-05-13T02:19:19.988Z,0
2018-05-13T02:20:00.553Z,0
2018-05-13T02:20:41.113Z,0
2018-05-13T02:21:21.678Z,0
2018-05-13T02:22:02.251Z,0
2018-05-13T02:22:42.841Z,0
2018-05-13T02:23:23.400Z,0
2018-05-13T02:24:03.968Z,0
2018-05-13T02:24:44.611Z,0
2018-05-13T02:25:25.154Z,0
2018-05-13T02:26:05.765Z,0
2018-05-13T02:26:46.336Z,0
2018-05-13T02:27:26.917Z,0
2018-05-13T02:28:07.506Z,0
2018-05-13T02:28:48.055Z,0
2018-05-13T02:29:28.623Z,0
2018-05-13T02:30:09.190Z,0
2018-05-13T02:30:49.734Z,0
2018-05-13T02:31:30.331Z,0
2018-05-13T02:32:10.889Z,0
2018-05-13T02:32:51.456Z,0
2018-05-13T02:33:32.006Z,0
2018-05-13T02:34:12.575Z,0
2018-05-13T02:34:53.151Z,0
2018-05-13T02:35:33.709Z,0
2018-05-13T02:36:14.282Z,0
2018-05-13T02:36:54.836Z,0
2018-05-13T02:37:35.427Z,0
2018-05-13T02:38:15.987Z,0
2018-05-13T02:38:56.547Z,0
2018-05-13T02:39:37.118Z,0
2018-05-13T02:40:17.705Z,0
2018-05-13T02:40:58.287Z,0
2018-05-13T02:41:38.840Z,0
2018-05-13T02:42:19.398Z,0
2018-05-13T02:42:59.959Z,0
2018-05-13T02:43:40.514Z,0
2018-05-13T02:44:21.080Z,0
2018-05-13T02:45:01.644Z,0
2018-05-13T02:45:42.261Z,0
2018-05-13T02:46:22.824Z,0
2018-05-13T02:47:03.387Z,0
2018-05-13T02:47:43.965Z,0
2018-05-13T02:48:24.508Z,0
2018-05-13T02:49:05.060Z,0
2018-05-13T02:49:45.633Z,0
2018-05-13T02:50:26.186Z,0
2018-05-13T02:51:06.751Z,0
2018-05-13T02:51:47.339Z,0
2018-05-13T02:52:27.901Z,0
2018-05-13T02:53:08.481Z,0
2018-05-13T02:53:49.043Z,0
2018-05-13T02:54:29.614Z,0
2018-05-13T02:55:10.187Z,0
2018-05-13T02:55:50.749Z,0
2018-05-13T02:56:31.294Z,0
2018-05-13T02:57:11.887Z,0
2018-05-13T02:57:52.481Z,0
2018-05-13T02:58:33.023Z,0
2018-05-13T02:59:13.588Z,0
2018-05-13T02:59:54.165Z,0
2018-05-13T03:00:34.721Z,0
2018-05-13T03:01:15.283Z,0
2018-05-13T03:01:55.845Z,0
2018-05-13T03:02:36.426Z,0
2018-05-13T03:03:17.017Z,0
2018-05-13T03:03:57.604Z,0
2018-05-13T03:04:38.163Z,0
2018-05-13T03:05:18.717Z,0
2018-05-13T03:05:59.275Z,0
2018-05-13T03:06:39.842Z,0
2018-05-13T03:07:20.418Z,0
2018-05-13T03:08:00.965Z,0
2018-05-13T03:08:41.534Z,0
2018-05-13T03:09:22.111Z,0
2018-05-13T03:10:02.672Z,0
2018-05-13T03:10:43.235Z,0
2018-05-13T03:11:23.829Z,0
2018-05-13T03:12:04.381Z,0
2018-05-13T03:12:44.929Z,0
2018-05-13T03:13:25.523Z,0
2018-05-13T03:14:06.055Z,0
2018-05-13T03:14:46.622Z,0
2018-05-13T03:15:27.202Z,0
2018-05-13T03:16:07.776Z,0
2018-05-13T03:16:48.377Z,0
2018-05-13T03:17:28.929Z,0
2018-05-13T03:18:09.590Z,0
2018-05-13T03:18:50.106Z,0
2018-05-13T03:19:30.663Z,0
2018-05-13T03:20:11.236Z,0
2018-05-13T03:20:51.822Z,0
2018-05-13T03:21:32.387Z,5
2018-05-13T03:22:12.939Z,5
2018-05-13T03:22:53.491Z,5
2018-05-13T03:23:34.053Z,5
2018-05-13T03:24:14.620Z,5
2018-05-13T03:24:55.193Z,5
2018-05-13T03:25:35.745Z,5
2018-05-13T03:26:16.298Z,5
2018-05-13T03:26:56.864Z,5
2018-05-13T03:27:37.443Z,5
2018-05-13T03:28:18.002Z,5
2018-05-13T03:28:58.569Z,5
2018-05-13T03:29:39.135Z,5
2018-05-13T03:30:19.701Z,5
2018-05-13T03:31:00.263Z,5
2018-05-13T03:31:40.819Z,5
2018-05-13T03:32:21.378Z,5
2018-05-13T03:33:01.928Z,5
2018-05-13T03:33:42.483Z,5
2018-05-13T03:34:23.042Z,10
2018-05-13T03:35:03.592Z,10
2018-05-13T03:35:44.162Z,10
2018-05-13T03:36:24.724Z,10
2018-05-13T03:37:05.298Z,10
2018-05-13T03:37:45.880Z,10
2018-05-13T03:38:26.449Z,10
2018-05-13T03:39:07.092Z,10
2018-05-13T03:39:47.634Z,10
2018-05-13T03:40:28.193Z,10
2018-05-13T03:41:08.761Z,10
2018-05-13T03:41:49.327Z,10
2018-05-13T03:42:29.907Z,10
2018-05-13T03:43:10.477Z,15
2018-05-13T03:43:51.034Z,15
2018-05-13T03:44:31.589Z,15
2018-05-13T03:45:12.139Z,15
2018-05-13T03:45:52.730Z,15
2018-05-13T03:46:33.287Z,15
2018-05-13T03:47:13.843Z,15
2018-05-13T03:47:54.419Z,15
2018-05-13T03:48:34.990Z,15
2018-05-13T03:49:15.570Z,15
2018-05-13T03:49:56.142Z,15
2018-05-13T03:50:36.688Z,20
2018-05-13T03:51:17.272Z,20
2018-05-13T03:51:57.865Z,20
2018-05-13T03:52:38.430Z,20
2018-05-13T03:53:18.986Z,20
2018-05-13T03:53:59.549Z,20
2018-05-13T03:54:40.115Z,20
2018-05-13T03:55:20.700Z,20
2018-05-13T03:56:01.246Z,20
2018-05-13T03:56:41.817Z,20
2018-05-13T03:57:22.376Z,25
2018-05-13T03:58:02.956Z,25
2018-05-13T03:58:43.504Z,25
2018-05-13T03:59:24.103Z,25
2018-05-13T04:00:04.654Z,25
2018-05-13T04:00:45.211Z,25
2018-05-13T04:01:25.811Z,25
2018-05-13T04:02:06.385Z,25
2018-05-13T04:02:46.941Z,25
2018-05-13T04:03:27.512Z,25
2018-05-13T04:04:08.074Z,30
2018-05-13T04:04:48.667Z,30
2018-05-13T04:05:29.251Z,30
2018-05-13T04:06:09.849Z,30
2018-05-13T04:06:50.420Z,30
2018-05-13T04:07:31.004Z,30
2018-05-13T04:08:11.598Z,30
2018-05-13T04:08:52.157Z,30
2018-05-13T04:09:32.709Z,30
2018-05-13T04:10:13.278Z,35
2018-05-13T04:10:53.854Z,35
2018-05-13T04:11:34.411Z,35
2018-05-13T04:12:14.981Z,35
2018-05-13T04:12:55.550Z,35
2018-05-13T04:13:36.118Z,35
2018-05-13T04:14:16.679Z,35
2018-05-13T04:14:57.256Z,35
2018-05-13T04:15:37.815Z,40
2018-05-13T04:16:18.376Z,40
2018-05-13T04:16:58.952Z,40
2018-05-13T04:17:39.539Z,40
2018-05-13T04:18:20.124Z,40
2018-05-13T04:19:00.693Z,40
2018-05-13T04:19:41.253Z,40
2018-05-13T04:20:21.832Z,40
2018-05-13T04:21:02.367Z,45
2018-05-13T04:21:42.904Z,45
2018-05-13T04:22:23.464Z,45
2018-05-13T04:23:04.030Z,45
2018-05-13T04:23:44.586Z,45
2018-05-13T04:24:25.191Z,45
2018-05-13T04:25:05.736Z,50
2018-05-13T04:25:46.311Z,50
2018-05-13T04:26:26.879Z,50
2018-05-13T04:27:07.441Z,50
2018-05-13T04:27:47.995Z,50
2018-05-13T04:28:28.578Z,50
2018-05-13T04:29:09.141Z,50
2018-05-13T04:29:49.764Z,55
2018-05-13T04:30:30.318Z,55
2018-05-13T04:31:10.920Z,55
2018-05-13T04:31:51.503Z,55
2018-05-13T04:32:32.102Z,55
2018-05-13T04:33:12.633Z,55
2018-05-13T04:33:53.180Z,55
2018-05-13T04:34:33.729Z,60
2018-05-13T04:35:14.296Z,60
2018-05-13T04:35:54.866Z,60
2018-05-13T04:36:35.464Z,60
2018-05-13T04:37:16.071Z,60
2018-05-13T04:37:56.607Z,60
2018-05-13T04:38:37.147Z,65
2018-05-13T04:39:17.723Z,65
2018-05-13T04:39:58.282Z,65
2018-05-13T04:40:38.842Z,65
2018-05-13T04:41:19.415Z,65
2018-05-13T04:41:59.978Z,65
2018-05-13T04:42:40.507Z,70
2018-05-13T04:43:21.093Z,70
2018-05-13T04:44:01.649Z,70
2018-05-13T04:44:42.193Z,70
2018-05-13T04:45:22.715Z,70
2018-05-13T04:46:03.307Z,75
2018-05-13T04:46:43.890Z,75
2018-05-13T04:47:24.475Z,75
2018-05-13T04:48:05.064Z,75
2018-05-13T04:48:45.645Z,75
2018-05-13T04:49:26.192Z,75
2018-05-13T04:50:06.749Z,80
2018-05-13T04:50:47.334Z,80
2018-05-13T04:51:27.888Z,80
2018-05-13T04:52:08.459Z,80
2018-05-13T04:52:49.033Z,80
2018-05-13T04:53:29.581Z,85
2018-05-13T04:54:10.218Z,85
2018-05-13T04:54:50.784Z,85
2018-05-13T04:55:31.339Z,85
2018-05-13T04:56:11.899Z,85
2018-05-13T04:56:52.490Z,90
2018-05-13T04:57:33.068Z,90
2018-05-13T04:58:13.643Z,90
2018-05-13T04:58:54.183Z,90
2018-05-13T04:59:34.777Z,90
2018-05-13T05:00:15.336Z,95
2018-05-13T05:00:55.897Z,95
2018-05-13T05:01:36.459Z,95
2018-05-13T05:02:17.022Z,95
2018-05-13T05:02:57.607Z,95
2018-05-13T05:03:38.185Z,100
2018-05-13T05:04:18.736Z,100
2018-05-13T05:04:59.319Z,100
2018-05-13T05:05:40.932Z,100
2018-05-13T05:06:21.757Z,105
2018-05-13T05:07:04.156Z,105
2018-05-13T05:07:45.861Z,105
2018-05-13T05:08:27.033Z,105
2018-05-13T05:09:08.282Z,105
2018-05-13T05:09:50.860Z,110
2018-05-13T05:10:32.047Z,110
2018-05-13T05:11:14.012Z,110
2018-05-13T05:11:57.663Z,110
2018-05-13T05:12:40.174Z,110
2018-05-13T05:13:21.302Z,115
2018-05-13T05:14:03.414Z,115
2018-05-13T05:14:46.401Z,115
2018-05-13T05:15:27.695Z,115
2018-05-13T05:16:08.912Z,115
2018-05-13T05:16:50.061Z,115
2018-05-13T05:17:31.266Z,115
2018-05-13T05:18:14.377Z,115
2018-05-13T05:18:56.146Z,115
2018-05-13T05:19:37.886Z,120
2018-05-13T05:20:19.081Z,120
2018-05-13T05:21:00.258Z,120
2018-05-13T05:21:41.449Z,125
2018-05-13T05:22:23.859Z,125
2018-05-13T05:23:05.933Z,125
2018-05-13T05:23:47.126Z,130
2018-05-13T05:24:28.337Z,130
2018-05-13T05:25:10.098Z,130
2018-05-13T05:25:51.278Z,135
2018-05-13T05:26:32.487Z,135
2018-05-13T05:27:14.641Z,140
2018-05-13T05:27:55.903Z,140
2018-05-13T05:28:37.663Z,145
2018-05-13T05:29:18.853Z,145
2018-05-13T05:30:00.042Z,150
2018-05-13T05:30:41.251Z,150
2018-05-13T05:31:22.398Z,255
2018-05-13T05:32:02.964Z,540
2018-05-13T05:32:43.530Z,860
2018-05-13T05:33:24.078Z,1020
2018-05-13T05:34:04.649Z,1045
2018-05-13T05:34:45.206Z,985
2018-05-13T05:35:25.792Z,925
2018-05-13T05:36:06.364Z,930
2018-05-13T05:36:46.939Z,1000
2018-05-13T05:37:27.524Z,1040
2018-05-13T05:38:08.076Z,1035
2018-05-13T05:38:48.649Z,1035
2018-05-13T05:39:29.227Z,1085
2018-05-13T05:40:09.803Z,1085
2018-05-13T05:40:50.394Z,1095
2018-05-13T05:41:30.958Z,1095
2018-05-13T05:42:11.529Z,1080
2018-05-13T05:42:52.114Z,1070
2018-05-13T05:43:32.669Z,1075
2018-05-13T05:44:13.234Z,1085
2018-05-13T05:44:53.810Z,1090
2018-05-13T05:45:34.379Z,1125
2018-05-13T05:46:14.953Z,1145
2018-05-13T05:46:55.515Z,1135
2018-05-13T05:47:36.118Z,1135
2018-05-13T05:48:16.700Z,1180
2018-05-13T05:48:58.570Z,1180
2018-05-13T05:49:39.668Z,1150
2018-05-13T05:50:20.507Z,1130
2018-05-13T05:51:01.125Z,1170
2018-05-13T05:51:41.695Z,1210
2018-05-13T05:52:22.260Z,1170
2018-05-13T05:53:02.836Z,1170
2018-05-13T05:53:43.433Z,1140
2018-05-13T05:54:24.003Z,1165
2018-05-13T05:55:04.607Z,1175
2018-05-13T05:55:45.185Z,1185
2018-05-13T05:56:25.755Z,1210
2018-05-13T05:57:06.329Z,1230
2018-05-13T05:57:46.897Z,1255
2018-05-13T05:58:27.440Z,1235
2018-05-13T05:59:08.002Z,1230
2018-05-13T05:59:48.567Z,1215
2018-05-13T06:00:29.161Z,1190
2018-05-13T06:01:09.734Z,1275
2018-05-13T06:01:50.307Z,1320
2018-05-13T06:02:30.880Z,1305
2018-05-13T06:03:11.440Z,1230
2018-05-13T06:03:52.035Z,1225
2018-05-13T06:04:32.603Z,1220
2018-05-13T06:05:13.165Z,1235
2018-05-13T06:05:53.740Z,1225
2018-05-13T06:06:34.311Z,1235
2018-05-13T06:07:14.881Z,1250
2018-05-13T06:07:55.442Z,1295
2018-05-13T06:08:36.005Z,1340
2018-05-13T06:09:16.564Z,1350
2018-05-13T06:09:57.138Z,1310
2018-05-13T06:10:37.713Z,1305
2018-05-13T06:11:18.292Z,1345
2018-05-13T06:11:58.885Z,1355
2018-05-13T06:12:39.460Z,1365
2018-05-13T06:13:20.066Z,1390
2018-05-13T06:14:00.627Z,1410
2018-05-13T06:14:41.190Z,1390
2018-05-13T06:15:21.753Z,1335
2018-05-13T06:16:02.318Z,1375
2018-05-13T06:16:42.904Z,1395
2018-05-13T06:17:23.474Z,1420
2018-05-13T06:18:04.032Z,1425
2018-05-13T06:18:44.602Z,1400
2018-05-13T06:19:25.165Z,1350
2018-05-13T06:20:05.728Z,1355
2018-05-13T06:20:46.359Z,1420
2018-05-13T06:21:26.928Z,1435
2018-05-13T06:22:07.514Z,1375
2018-05-13T06:22:48.081Z,1325
2018-05-13T06:23:28.655Z,1375
2018-05-13T06:24:09.243Z,1395
2018-05-13T06:24:49.807Z,1415
2018-05-13T06:25:30.370Z,1395
2018-05-13T06:26:10.942Z,1340
2018-05-13T06:26:51.515Z,1330
2018-05-13T06:27:32.075Z,1315
2018-05-13T06:28:12.658Z,1300
2018-05-13T06:28:53.263Z,1340
2018-05-13T06:29:33.821Z,1390
2018-05-13T06:30:14.391Z,1400
2018-05-13T06:30:54.961Z,1415
2018-05-13T06:31:35.551Z,1460
2018-05-13T06:32:16.179Z,1485
2018-05-13T06:32:56.750Z,1505
2018-05-13T06:33:37.328Z,1495
2018-05-13T06:34:17.970Z,1450
2018-05-13T06:34:58.529Z,1450
2018-05-13T06:35:39.108Z,1475
2018-05-13T06:36:19.678Z,1425
2018-05-13T06:37:00.242Z,1425
2018-05-13T06:37:40.824Z,1460
2018-05-13T06:38:21.437Z,1515
2018-05-13T06:39:01.965Z,1480
2018-05-13T06:39:42.560Z,1495
2018-05-13T06:40:23.118Z,1515
2018-05-13T06:41:03.684Z,1485
2018-05-13T06:41:44.253Z,1480
2018-05-13T06:42:24.827Z,1525
2018-05-13T06:43:05.434Z,1520
2018-05-13T06:43:46.000Z,1535
2018-05-13T06:44:26.599Z,1530
2018-05-13T06:45:07.237Z,1525
2018-05-13T06:45:47.742Z,1510
2018-05-13T06:46:28.305Z,1535
2018-05-13T06:47:08.896Z,1555
2018-05-13T06:47:49.478Z,1535
2018-05-13T06:48:30.052Z,1510
2018-05-13T06:49:10.628Z,1505
2018-05-13T06:49:51.236Z,1535
2018-05-13T06:50:31.800Z,1550
2018-05-13T06:51:12.396Z,1545
2018-05-13T06:51:52.993Z,1580
2018-05-13T06:52:33.589Z,1585
2018-05-13T06:53:14.155Z,1565
2018-05-13T06:53:54.738Z,1550
2018-05-13T06:54:35.282Z,1580
2018-05-13T06:55:15.856Z,1565
2018-05-13T06:55:56.436Z,1590
2018-05-13T06:56:37.022Z,1565
2018-05-13T06:57:17.658Z,1580
2018-05-13T06:57:58.215Z,1595
2018-05-13T06:58:38.782Z,1610
2018-05-13T06:59:19.360Z,1585
2018-05-13T06:59:59.946Z,1580
2018-05-13T07:00:40.516Z,1590
2018-05-13T07:01:21.077Z,1585
2018-05-13T07:02:01.675Z,1580
2018-05-13T07:02:42.240Z,1505
2018-05-13T07:03:22.817Z,1490
2018-05-13T07:04:03.395Z,1455
2018-05-13T07:04:43.974Z,1385
2018-05-13T07:05:24.559Z,1370
2018-05-13T07:06:05.140Z,1375
2018-05-13T07:06:45.728Z,1340
2018-05-13T07:07:26.321Z,1225
2018-05-13T07:08:06.930Z,1165
2018-05-13T07:08:47.464Z,1155
2018-05-13T07:09:28.037Z,1135
2018-05-13T07:10:08.599Z,1070
2018-05-13T07:10:49.186Z,965
2018-05-13T07:11:29.755Z,895
2018-05-13T07:12:10.312Z,825
2018-05-13T07:12:50.892Z,765
2018-05-13T07:13:31.449Z,710
2018-05-13T07:14:12.027Z,660
2018-05-13T07:14:52.622Z,635
2018-05-13T07:15:33.193Z,625
2018-05-13T07:16:13.768Z,615
2018-05-13T07:16:54.354Z,620
2018-05-13T07:17:34.947Z,610
2018-05-13T07:18:15.500Z,600
2018-05-13T07:18:56.075Z,585
2018-05-13T07:19:36.645Z,580
2018-05-13T07:20:17.269Z,575
2018-05-13T07:20:57.944Z,575
2018-05-13T07:21:39.268Z,570
2018-05-13T07:22:20.154Z,570
2018-05-13T07:23:01.062Z,570
2018-05-13T07:23:41.666Z,570
2018-05-13T07:24:22.783Z,570
2018-05-13T07:25:04.492Z,570
2018-05-13T07:25:46.121Z,570
2018-05-13T07:26:26.859Z,570
2018-05-13T07:27:07.459Z,570
2018-05-13T07:27:47.988Z,565
2018-05-13T07:28:29.000Z,565
2018-05-13T07:29:09.591Z,565
2018-05-13T07:29:50.280Z,570
2018-05-13T07:30:31.206Z,570
2018-05-13T07:31:12.251Z,570
2018-05-13T07:31:52.861Z,570
2018-05-13T07:32:33.423Z,565
2018-05-13T07:33:14.006Z,560
2018-05-13T07:33:54.590Z,550
2018-05-13T07:34:35.182Z,555
2018-05-13T07:35:15.771Z,555
2018-05-13T07:35:56.382Z,560
2018-05-13T07:36:36.966Z,570
2018-05-13T07:37:17.527Z,570
2018-05-13T07:37:58.132Z,560
2018-05-13T07:38:38.731Z,555
2018-05-13T07:39:19.312Z,545
2018-05-13T07:39:59.898Z,540
2018-05-13T07:40:40.468Z,535
2018-05-13T07:41:21.056Z,535
2018-05-13T07:42:01.650Z,535
2018-05-13T07:42:42.209Z,525
2018-05-13T07:43:22.855Z,525
2018-05-13T07:44:03.368Z,525
2018-05-13T07:44:43.948Z,525
2018-05-13T07:45:24.530Z,525
2018-05-13T07:46:05.108Z,530
2018-05-13T07:46:45.686Z,530
2018-05-13T07:47:26.266Z,525
2018-05-13T07:48:06.846Z,525
2018-05-13T07:48:47.443Z,525
2018-05-13T07:49:28.045Z,525
2018-05-13T07:50:08.720Z,520
2018-05-13T07:50:49.296Z,520
2018-05-13T07:51:29.895Z,520
2018-05-13T07:52:10.486Z,520
2018-05-13T07:52:51.072Z,515
2018-05-13T07:53:31.657Z,515
2018-05-13T07:54:12.264Z,520
2018-05-13T07:54:52.848Z,510
2018-05-13T07:55:33.408Z,510
2018-05-13T07:56:13.982Z,495
2018-05-13T07:56:54.526Z,480
2018-05-13T07:57:35.124Z,460
2018-05-13T07:58:15.709Z,435
2018-05-13T07:58:56.288Z,415
2018-05-13T07:59:36.859Z,410
2018-05-13T08:00:17.433Z,405
2018-05-13T08:00:58.001Z,400
2018-05-13T08:01:38.581Z,395
2018-05-13T08:02:19.140Z,395
2018-05-13T08:02:59.740Z,390
2018-05-13T08:03:40.322Z,385
2018-05-13T08:04:20.874Z,385
2018-05-13T08:05:01.455Z,385
2018-05-13T08:05:42.049Z,380
2018-05-13T08:06:22.648Z,380
2018-05-13T08:07:03.238Z,375
2018-05-13T08:07:43.809Z,375
2018-05-13T08:08:24.383Z,375
2018-05-13T08:09:05.081Z,370
2018-05-13T08:09:45.971Z,365
2018-05-13T08:10:26.554Z,360
2018-05-13T08:11:07.123Z,355
2018-05-13T08:11:47.725Z,350
2018-05-13T08:12:28.312Z,350
2018-05-13T08:13:08.920Z,345
2018-05-13T08:13:49.516Z,340
2018-05-13T08:14:30.115Z,340
2018-05-13T08:15:10.706Z,335
2018-05-13T08:15:51.392Z,330
2018-05-13T08:16:32.012Z,325
2018-05-13T08:17:12.623Z,320
2018-05-13T08:17:53.210Z,315
2018-05-13T08:18:33.803Z,310
2018-05-13T08:19:14.456Z,305
2018-05-13T08:19:55.066Z,300
2018-05-13T08:20:35.834Z,300
2018-05-13T08:21:16.200Z,295
2018-05-13T08:21:56.755Z,295
2018-05-13T08:22:37.354Z,290
2018-05-13T08:23:17.998Z,290
2018-05-13T08:23:58.584Z,285
2018-05-13T08:24:39.181Z,285
2018-05-13T08:25:19.762Z,275
2018-05-13T08:26:00.350Z,270
2018-05-13T08:26:40.909Z,270
2018-05-13T08:27:21.521Z,265
2018-05-13T08:28:02.093Z,260
2018-05-13T08:28:42.662Z,260
2018-05-13T08:29:23.233Z,255
2018-05-13T08:30:03.902Z,255
2018-05-13T08:30:44.467Z,250
2018-05-13T08:31:25.069Z,250
2018-05-13T08:32:05.632Z,245
2018-05-13T08:32:46.197Z,245
2018-05-13T08:33:26.820Z,245
2018-05-13T08:34:07.439Z,240
2018-05-13T08:34:48.007Z,240
2018-05-13T08:35:28.575Z,235
2018-05-13T08:36:09.169Z,235
2018-05-13T08:36:49.794Z,235
2018-05-13T08:37:30.399Z,230
2018-05-13T08:38:10.982Z,230
2018-05-13T08:38:51.583Z,225
2018-05-13T08:39:32.149Z,230
2018-05-13T08:40:12.711Z,220
2018-05-13T08:40:53.287Z,220
2018-05-13T08:41:33.861Z,220
2018-05-13T08:42:14.420Z,215
2018-05-13T08:42:55.004Z,215
2018-05-13T08:43:35.598Z,215
2018-05-13T08:44:16.153Z,210
2018-05-13T08:44:56.717Z,210
2018-05-13T08:45:37.331Z,205
2018-05-13T08:46:17.913Z,205
2018-05-13T08:46:58.493Z,205
2018-05-13T08:47:39.093Z,205
2018-05-13T08:48:19.680Z,200
2018-05-13T08:49:00.231Z,200
2018-05-13T08:49:40.808Z,200
2018-05-13T08:50:21.387Z,195
2018-05-13T08:51:01.958Z,195
2018-05-13T08:51:42.514Z,195
2018-05-13T08:52:23.087Z,190
2018-05-13T08:53:03.649Z,190
2018-05-13T08:53:44.298Z,190
2018-05-13T08:54:24.784Z,185
2018-05-13T08:55:05.364Z,185
2018-05-13T08:55:45.925Z,185
2018-05-13T08:56:26.498Z,185
2018-05-13T08:57:07.064Z,180
2018-05-13T08:57:47.640Z,185
2018-05-13T08:58:28.219Z,180
2018-05-13T08:59:08.783Z,180
2018-05-13T08:59:49.355Z,175
2018-05-13T09:00:30.317Z,175
2018-05-13T09:01:10.825Z,175
2018-05-13T09:01:51.392Z,175
2018-05-13T09:02:31.989Z,175
2018-05-13T09:03:12.602Z,170
2018-05-13T09:03:54.030Z,170
2018-05-13T09:04:34.589Z,170
2018-05-13T09:05:15.836Z,170
2018-05-13T09:05:56.308Z,170
2018-05-13T09:06:37.164Z,165
2018-05-13T09:07:17.780Z,165
2018-05-13T09:07:58.367Z,165
2018-05-13T09:08:39.735Z,165
2018-05-13T09:09:20.385Z,165
2018-05-13T09:10:00.941Z,160
2018-05-13T09:10:41.519Z,160
2018-05-13T09:11:22.101Z,160
2018-05-13T09:12:02.703Z,160
2018-05-13T09:12:43.236Z,160
2018-05-13T09:13:24.016Z,155
2018-05-13T09:14:04.664Z,155
2018-05-13T09:14:45.511Z,155
2018-05-13T09:15:26.066Z,155
2018-05-13T09:16:06.742Z,155
2018-05-13T09:16:47.320Z,155
2018-05-13T09:17:27.874Z,150
2018-05-13T09:18:08.438Z,150
2018-05-13T09:18:49.009Z,150
2018-05-13T09:19:29.877Z,150
2018-05-13T09:20:10.453Z,150
2018-05-13T09:20:51.049Z,145
2018-05-13T09:21:31.769Z,145
2018-05-13T09:22:12.564Z,145
2018-05-13T09:22:53.368Z,145
2018-05-13T09:23:35.507Z,145
2018-05-13T09:24:16.806Z,145
2018-05-13T09:24:57.552Z,140
2018-05-13T09:25:38.432Z,140
2018-05-13T09:26:19.008Z,140
2018-05-13T09:26:59.560Z,140
2018-05-13T09:27:41.590Z,140
2018-05-13T09:28:22.473Z,140
2018-05-13T09:29:03.157Z,140
2018-05-13T09:29:43.648Z,140
2018-05-13T09:30:26.300Z,140
2018-05-13T09:31:06.865Z,140
2018-05-13T09:31:47.426Z,140
2018-05-13T09:32:28.012Z,140
2018-05-13T09:33:08.660Z,140
2018-05-13T09:33:49.233Z,135